sensor_id;sensor_type;location;lat;lon;timestamp;temperature;humidity
28171;DHT22;15458;53.346;-1.688;2023-04-03T00:00:56;3.00;99.90
28171;DHT22;15458;53.346;-1.688;2023-04-03T00:03:22;3.00;99.90
28171;DHT22;15458;53.346;-1.688;2023-04-03T00:05:48;3.00;99.90
28171;DHT22;15458;53.346;-1.688;2023-04-03T00:08:14;3.00;99.90
28171;DHT22;15458;53.346;-1.688;2023-04-03T00:10:40;3.00;99.90
28171;DHT22;15458;53.346;-1.688;2023-04-03T00:13:06;3.00;99.90
28171;DHT22;15458;53.346;-1.688;2023-04-03T00:15:33;3.00;99.90
28171;DHT22;15458;53.346;-1.688;2023-04-03T00:17:59;3.00;99.90
28171;DHT22;15458;53.346;-1.688;2023-04-03T00:20:25;2.90;99.90
28171;DHT22;15458;53.346;-1.688;2023-04-03T00:22:52;2.90;99.90
28171;DHT22;15458;53.346;-1.688;2023-04-03T00:25:18;2.80;99.90
28171;DHT22;15458;53.346;-1.688;2023-04-03T00:27:44;2.80;99.90
28171;DHT22;15458;53.346;-1.688;2023-04-03T00:30:13;2.70;99.90
28171;DHT22;15458;53.346;-1.688;2023-04-03T00:32:39;2.70;99.90
28171;DHT22;15458;53.346;-1.688;2023-04-03T00:35:05;2.60;99.90
28171;DHT22;15458;53.346;-1.688;2023-04-03T00:37:31;2.50;99.90
28171;DHT22;15458;53.346;-1.688;2023-04-03T00:39:56;2.50;99.90
28171;DHT22;15458;53.346;-1.688;2023-04-03T00:42:22;2.50;99.90
28171;DHT22;15458;53.346;-1.688;2023-04-03T00:47:16;2.40;99.90
28171;DHT22;15458;53.346;-1.688;2023-04-03T00:49:43;2.30;99.90
28171;DHT22;15458;53.346;-1.688;2023-04-03T00:52:13;2.30;99.90
28171;DHT22;15458;53.346;-1.688;2023-04-03T00:54:40;2.20;99.90
28171;DHT22;15458;53.346;-1.688;2023-04-03T00:57:06;2.20;99.90
28171;DHT22;15458;53.346;-1.688;2023-04-03T00:59:35;2.10;99.90
28171;DHT22;15458;53.346;-1.688;2023-04-03T01:02:04;2.10;99.90
28171;DHT22;15458;53.346;-1.688;2023-04-03T01:04:38;2.00;99.90
28171;DHT22;15458;53.346;-1.688;2023-04-03T01:07:08;1.90;99.90
28171;DHT22;15458;53.346;-1.688;2023-04-03T01:09:35;1.90;99.90
28171;DHT22;15458;53.346;-1.688;2023-04-03T01:12:25;1.80;99.90
28171;DHT22;15458;53.346;-1.688;2023-04-03T01:15:00;1.70;99.90
28171;DHT22;15458;53.346;-1.688;2023-04-03T01:17:34;1.70;99.90
28171;DHT22;15458;53.346;-1.688;2023-04-03T01:25:28;1.60;99.90
28171;DHT22;15458;53.346;-1.688;2023-04-03T01:27:54;1.60;99.90
28171;DHT22;15458;53.346;-1.688;2023-04-03T01:30:21;1.60;99.90
28171;DHT22;15458;53.346;-1.688;2023-04-03T01:32:49;1.60;99.90
28171;DHT22;15458;53.346;-1.688;2023-04-03T01:35:14;1.70;99.90
28171;DHT22;15458;53.346;-1.688;2023-04-03T01:37:40;1.70;99.90
28171;DHT22;15458;53.346;-1.688;2023-04-03T01:40:06;1.70;99.90
28171;DHT22;15458;53.346;-1.688;2023-04-03T01:42:33;1.80;99.90
28171;DHT22;15458;53.346;-1.688;2023-04-03T01:44:59;1.80;99.90
28171;DHT22;15458;53.346;-1.688;2023-04-03T01:47:25;1.80;99.90
28171;DHT22;15458;53.346;-1.688;2023-04-03T01:49:50;1.80;99.90
28171;DHT22;15458;53.346;-1.688;2023-04-03T01:52:16;1.80;99.90
28171;DHT22;15458;53.346;-1.688;2023-04-03T01:54:41;1.80;99.90
28171;DHT22;15458;53.346;-1.688;2023-04-03T01:57:07;1.80;99.90
28171;DHT22;15458;53.346;-1.688;2023-04-03T01:59:33;1.80;99.90
28171;DHT22;15458;53.346;-1.688;2023-04-03T02:01:58;1.70;99.90
28171;DHT22;15458;53.346;-1.688;2023-04-03T02:04:25;1.70;99.90
28171;DHT22;15458;53.346;-1.688;2023-04-03T02:06:51;1.60;99.90
28171;DHT22;15458;53.346;-1.688;2023-04-03T02:09:16;1.60;99.90
28171;DHT22;15458;53.346;-1.688;2023-04-03T02:11:42;1.50;99.90
28171;DHT22;15458;53.346;-1.688;2023-04-03T02:14:08;1.50;99.90
28171;DHT22;15458;53.346;-1.688;2023-04-03T02:16:34;1.50;99.90
28171;DHT22;15458;53.346;-1.688;2023-04-03T02:18:59;1.40;99.90
28171;DHT22;15458;53.346;-1.688;2023-04-03T02:21:25;1.30;99.90
28171;DHT22;15458;53.346;-1.688;2023-04-03T02:23:51;1.30;99.90
28171;DHT22;15458;53.346;-1.688;2023-04-03T02:26:17;1.20;99.90
28171;DHT22;15458;53.346;-1.688;2023-04-03T02:28:43;1.20;99.90
28171;DHT22;15458;53.346;-1.688;2023-04-03T02:31:09;1.10;99.90
28171;DHT22;15458;53.346;-1.688;2023-04-03T02:33:35;1.10;99.90
28171;DHT22;15458;53.346;-1.688;2023-04-03T02:36:03;1.10;99.90
28171;DHT22;15458;53.346;-1.688;2023-04-03T02:38:29;1.10;99.90
28171;DHT22;15458;53.346;-1.688;2023-04-03T02:41:00;1.00;99.90
28171;DHT22;15458;53.346;-1.688;2023-04-03T02:43:26;1.00;99.90
28171;DHT22;15458;53.346;-1.688;2023-04-03T02:45:52;1.00;99.90
28171;DHT22;15458;53.346;-1.688;2023-04-03T02:48:17;1.00;99.90
28171;DHT22;15458;53.346;-1.688;2023-04-03T02:50:43;0.90;99.90
28171;DHT22;15458;53.346;-1.688;2023-04-03T02:53:09;0.90;99.90
28171;DHT22;15458;53.346;-1.688;2023-04-03T02:55:35;0.80;99.90
28171;DHT22;15458;53.346;-1.688;2023-04-03T02:58:00;0.80;99.90
28171;DHT22;15458;53.346;-1.688;2023-04-03T03:00:26;0.70;99.90
28171;DHT22;15458;53.346;-1.688;2023-04-03T03:02:52;0.70;99.90
28171;DHT22;15458;53.346;-1.688;2023-04-03T03:05:17;0.70;99.90
28171;DHT22;15458;53.346;-1.688;2023-04-03T03:07:43;0.70;99.90
28171;DHT22;15458;53.346;-1.688;2023-04-03T03:10:09;0.70;99.90
28171;DHT22;15458;53.346;-1.688;2023-04-03T03:12:34;0.70;99.90
28171;DHT22;15458;53.346;-1.688;2023-04-03T03:15:00;0.70;99.90
28171;DHT22;15458;53.346;-1.688;2023-04-03T03:17:26;0.70;99.90
28171;DHT22;15458;53.346;-1.688;2023-04-03T03:19:53;0.70;99.90
28171;DHT22;15458;53.346;-1.688;2023-04-03T03:22:19;0.70;99.90
28171;DHT22;15458;53.346;-1.688;2023-04-03T03:24:44;0.70;99.90
28171;DHT22;15458;53.346;-1.688;2023-04-03T03:27:10;0.70;99.90
28171;DHT22;15458;53.346;-1.688;2023-04-03T03:29:37;0.70;99.90
28171;DHT22;15458;53.346;-1.688;2023-04-03T03:32:03;0.70;99.90
28171;DHT22;15458;53.346;-1.688;2023-04-03T03:34:29;0.60;99.90
28171;DHT22;15458;53.346;-1.688;2023-04-03T03:36:54;0.60;99.90
28171;DHT22;15458;53.346;-1.688;2023-04-03T03:39:20;0.60;99.90
28171;DHT22;15458;53.346;-1.688;2023-04-03T03:41:46;0.50;99.90
28171;DHT22;15458;53.346;-1.688;2023-04-03T03:44:12;0.50;99.90
28171;DHT22;15458;53.346;-1.688;2023-04-03T03:46:38;0.40;99.90
28171;DHT22;15458;53.346;-1.688;2023-04-03T03:49:04;0.40;99.90
28171;DHT22;15458;53.346;-1.688;2023-04-03T03:51:29;0.30;99.90
28171;DHT22;15458;53.346;-1.688;2023-04-03T03:53:55;0.30;99.90
28171;DHT22;15458;53.346;-1.688;2023-04-03T03:56:21;0.30;99.90
28171;DHT22;15458;53.346;-1.688;2023-04-03T03:58:47;0.30;99.90
28171;DHT22;15458;53.346;-1.688;2023-04-03T04:01:13;0.20;99.90
28171;DHT22;15458;53.346;-1.688;2023-04-03T04:03:38;0.20;99.90
28171;DHT22;15458;53.346;-1.688;2023-04-03T04:06:05;0.20;99.90
28171;DHT22;15458;53.346;-1.688;2023-04-03T04:08:30;0.20;99.90
28171;DHT22;15458;53.346;-1.688;2023-04-03T04:10:56;0.20;99.90
28171;DHT22;15458;53.346;-1.688;2023-04-03T04:13:22;0.20;99.90
28171;DHT22;15458;53.346;-1.688;2023-04-03T04:15:47;0.20;99.90
28171;DHT22;15458;53.346;-1.688;2023-04-03T04:18:13;0.20;99.90
28171;DHT22;15458;53.346;-1.688;2023-04-03T04:20:38;0.20;99.90
28171;DHT22;15458;53.346;-1.688;2023-04-03T04:23:04;0.20;99.90
28171;DHT22;15458;53.346;-1.688;2023-04-03T04:25:30;0.10;99.90
28171;DHT22;15458;53.346;-1.688;2023-04-03T04:27:55;0.10;99.90
28171;DHT22;15458;53.346;-1.688;2023-04-03T04:30:21;0.10;99.90
28171;DHT22;15458;53.346;-1.688;2023-04-03T04:32:47;0.00;99.90
28171;DHT22;15458;53.346;-1.688;2023-04-03T04:35:12;0.00;99.90
28171;DHT22;15458;53.346;-1.688;2023-04-03T04:37:38;-0.10;99.90
28171;DHT22;15458;53.346;-1.688;2023-04-03T04:40:04;0.00;99.90
28171;DHT22;15458;53.346;-1.688;2023-04-03T04:42:30;-0.10;99.90
28171;DHT22;15458;53.346;-1.688;2023-04-03T04:44:55;-0.10;99.90
28171;DHT22;15458;53.346;-1.688;2023-04-03T04:47:21;-0.20;99.90
28171;DHT22;15458;53.346;-1.688;2023-04-03T04:49:46;-0.20;99.90
28171;DHT22;15458;53.346;-1.688;2023-04-03T04:52:13;-0.20;99.90
28171;DHT22;15458;53.346;-1.688;2023-04-03T04:54:39;-0.30;99.90
28171;DHT22;15458;53.346;-1.688;2023-04-03T04:57:05;-0.20;99.90
28171;DHT22;15458;53.346;-1.688;2023-04-03T04:59:30;-0.30;99.90
28171;DHT22;15458;53.346;-1.688;2023-04-03T05:01:56;-0.30;99.90
28171;DHT22;15458;53.346;-1.688;2023-04-03T05:04:22;-0.30;99.90
28171;DHT22;15458;53.346;-1.688;2023-04-03T05:06:47;-0.40;99.90
28171;DHT22;15458;53.346;-1.688;2023-04-03T05:09:13;-0.40;99.90
28171;DHT22;15458;53.346;-1.688;2023-04-03T05:11:39;-0.40;99.90
28171;DHT22;15458;53.346;-1.688;2023-04-03T05:14:05;-0.40;99.90
28171;DHT22;15458;53.346;-1.688;2023-04-03T05:16:32;-0.50;99.90
28171;DHT22;15458;53.346;-1.688;2023-04-03T05:18:58;-0.40;99.90
28171;DHT22;15458;53.346;-1.688;2023-04-03T05:21:23;-0.40;99.90
28171;DHT22;15458;53.346;-1.688;2023-04-03T05:23:51;-0.40;99.90
28171;DHT22;15458;53.346;-1.688;2023-04-03T05:26:17;-0.50;99.90
28171;DHT22;15458;53.346;-1.688;2023-04-03T05:28:43;-0.50;99.90
28171;DHT22;15458;53.346;-1.688;2023-04-03T05:31:09;-0.50;99.90
28171;DHT22;15458;53.346;-1.688;2023-04-03T05:33:34;-0.50;99.90
28171;DHT22;15458;53.346;-1.688;2023-04-03T05:36:04;-0.50;99.90
28171;DHT22;15458;53.346;-1.688;2023-04-03T05:38:31;-0.40;99.90
28171;DHT22;15458;53.346;-1.688;2023-04-03T05:40:57;-0.40;99.90
28171;DHT22;15458;53.346;-1.688;2023-04-03T05:43:22;-0.40;99.90
28171;DHT22;15458;53.346;-1.688;2023-04-03T05:45:48;-0.50;99.90
28171;DHT22;15458;53.346;-1.688;2023-04-03T05:48:14;-0.40;99.90
28171;DHT22;15458;53.346;-1.688;2023-04-03T05:50:39;-0.50;99.90
28171;DHT22;15458;53.346;-1.688;2023-04-03T05:53:19;-0.50;99.90
28171;DHT22;15458;53.346;-1.688;2023-04-03T05:55:46;-0.60;99.90
28171;DHT22;15458;53.346;-1.688;2023-04-03T05:58:12;-0.60;99.90
28171;DHT22;15458;53.346;-1.688;2023-04-03T06:00:37;-0.60;99.90
28171;DHT22;15458;53.346;-1.688;2023-04-03T06:03:03;-0.60;99.90
28171;DHT22;15458;53.346;-1.688;2023-04-03T06:05:29;-0.70;99.90
28171;DHT22;15458;53.346;-1.688;2023-04-03T06:07:54;-0.60;99.90
28171;DHT22;15458;53.346;-1.688;2023-04-03T06:10:21;-0.60;99.90
28171;DHT22;15458;53.346;-1.688;2023-04-03T06:12:46;-0.60;99.90
28171;DHT22;15458;53.346;-1.688;2023-04-03T06:15:12;-0.60;99.90
28171;DHT22;15458;53.346;-1.688;2023-04-03T06:17:38;-0.60;99.90
28171;DHT22;15458;53.346;-1.688;2023-04-03T06:20:04;-0.60;99.90
28171;DHT22;15458;53.346;-1.688;2023-04-03T06:22:30;-0.50;99.90
28171;DHT22;15458;53.346;-1.688;2023-04-03T06:24:56;-0.50;99.90
28171;DHT22;15458;53.346;-1.688;2023-04-03T06:27:22;-0.50;99.90
28171;DHT22;15458;53.346;-1.688;2023-04-03T06:29:48;-0.40;99.90
28171;DHT22;15458;53.346;-1.688;2023-04-03T06:32:15;-0.40;99.90
28171;DHT22;15458;53.346;-1.688;2023-04-03T06:34:41;-0.30;99.90
28171;DHT22;15458;53.346;-1.688;2023-04-03T06:37:14;-0.30;99.90
28171;DHT22;15458;53.346;-1.688;2023-04-03T06:39:40;-0.20;99.90
28171;DHT22;15458;53.346;-1.688;2023-04-03T06:42:07;-0.20;99.90
28171;DHT22;15458;53.346;-1.688;2023-04-03T06:44:32;-0.20;99.90
28171;DHT22;15458;53.346;-1.688;2023-04-03T06:47:00;-0.20;99.90
28171;DHT22;15458;53.346;-1.688;2023-04-03T06:49:27;-0.20;99.90
28171;DHT22;15458;53.346;-1.688;2023-04-03T06:51:54;-0.20;99.90
28171;DHT22;15458;53.346;-1.688;2023-04-03T06:54:20;-0.10;99.90
28171;DHT22;15458;53.346;-1.688;2023-04-03T06:56:46;-0.10;99.90
28171;DHT22;15458;53.346;-1.688;2023-04-03T06:59:12;0.00;99.90
28171;DHT22;15458;53.346;-1.688;2023-04-03T07:01:39;0.10;99.90
28171;DHT22;15458;53.346;-1.688;2023-04-03T07:04:06;0.10;99.90
28171;DHT22;15458;53.346;-1.688;2023-04-03T07:06:32;0.20;99.90
28171;DHT22;15458;53.346;-1.688;2023-04-03T07:08:59;0.20;99.90
28171;DHT22;15458;53.346;-1.688;2023-04-03T07:11:25;0.30;99.90
28171;DHT22;15458;53.346;-1.688;2023-04-03T07:13:52;0.40;99.90
28171;DHT22;15458;53.346;-1.688;2023-04-03T07:16:18;0.50;99.90
28171;DHT22;15458;53.346;-1.688;2023-04-03T07:18:44;0.50;99.90
28171;DHT22;15458;53.346;-1.688;2023-04-03T07:21:11;0.60;99.90
28171;DHT22;15458;53.346;-1.688;2023-04-03T07:23:36;0.70;99.90
28171;DHT22;15458;53.346;-1.688;2023-04-03T07:26:02;0.80;99.90
28171;DHT22;15458;53.346;-1.688;2023-04-03T07:28:28;0.80;99.90
28171;DHT22;15458;53.346;-1.688;2023-04-03T07:31:06;0.90;99.90
28171;DHT22;15458;53.346;-1.688;2023-04-03T07:33:34;1.00;99.90
28171;DHT22;15458;53.346;-1.688;2023-04-03T07:36:00;1.10;99.90
28171;DHT22;15458;53.346;-1.688;2023-04-03T07:38:26;1.20;99.90
28171;DHT22;15458;53.346;-1.688;2023-04-03T07:40:52;1.20;99.90
28171;DHT22;15458;53.346;-1.688;2023-04-03T07:43:19;1.30;99.90
28171;DHT22;15458;53.346;-1.688;2023-04-03T07:45:46;1.40;99.90
28171;DHT22;15458;53.346;-1.688;2023-04-03T07:48:19;1.40;99.90
28171;DHT22;15458;53.346;-1.688;2023-04-03T07:50:46;1.60;99.90
28171;DHT22;15458;53.346;-1.688;2023-04-03T07:53:11;1.60;99.90
28171;DHT22;15458;53.346;-1.688;2023-04-03T07:55:37;1.70;99.90
28171;DHT22;15458;53.346;-1.688;2023-04-03T07:58:09;1.80;99.90
28171;DHT22;15458;53.346;-1.688;2023-04-03T08:00:35;1.90;99.90
28171;DHT22;15458;53.346;-1.688;2023-04-03T08:03:00;2.00;99.90
28171;DHT22;15458;53.346;-1.688;2023-04-03T08:05:26;2.00;99.90
28171;DHT22;15458;53.346;-1.688;2023-04-03T08:07:52;2.10;99.90
28171;DHT22;15458;53.346;-1.688;2023-04-03T08:10:18;2.20;99.90
28171;DHT22;15458;53.346;-1.688;2023-04-03T08:12:46;2.30;99.90
28171;DHT22;15458;53.346;-1.688;2023-04-03T08:15:12;2.40;99.90
28171;DHT22;15458;53.346;-1.688;2023-04-03T08:17:38;2.50;99.90
28171;DHT22;15458;53.346;-1.688;2023-04-03T08:20:07;2.70;99.90
28171;DHT22;15458;53.346;-1.688;2023-04-03T08:22:34;2.80;99.90
28171;DHT22;15458;53.346;-1.688;2023-04-03T08:24:59;2.90;99.90
28171;DHT22;15458;53.346;-1.688;2023-04-03T08:27:27;3.00;99.90
28171;DHT22;15458;53.346;-1.688;2023-04-03T08:29:54;3.20;99.90
28171;DHT22;15458;53.346;-1.688;2023-04-03T08:32:20;3.40;99.90
28171;DHT22;15458;53.346;-1.688;2023-04-03T08:34:46;3.50;99.90
28171;DHT22;15458;53.346;-1.688;2023-04-03T08:37:12;3.70;99.90
28171;DHT22;15458;53.346;-1.688;2023-04-03T08:39:37;3.80;99.90
28171;DHT22;15458;53.346;-1.688;2023-04-03T08:42:34;4.00;99.90
28171;DHT22;15458;53.346;-1.688;2023-04-03T08:45:01;4.20;99.90
28171;DHT22;15458;53.346;-1.688;2023-04-03T08:50:01;4.60;99.90
28171;DHT22;15458;53.346;-1.688;2023-04-03T08:52:58;4.70;99.90
28171;DHT22;15458;53.346;-1.688;2023-04-03T08:55:48;4.90;99.90
28171;DHT22;15458;53.346;-1.688;2023-04-03T08:58:19;5.00;99.90
28171;DHT22;15458;53.346;-1.688;2023-04-03T09:01:03;5.20;99.90
28171;DHT22;15458;53.346;-1.688;2023-04-03T09:03:37;5.30;99.90
28171;DHT22;15458;53.346;-1.688;2023-04-03T09:06:06;5.30;99.90
28171;DHT22;15458;53.346;-1.688;2023-04-03T09:17:00;5.80;99.90
28171;DHT22;15458;53.346;-1.688;2023-04-03T09:19:44;5.90;99.90
28171;DHT22;15458;53.346;-1.688;2023-04-03T09:22:21;6.00;99.90
28171;DHT22;15458;53.346;-1.688;2023-04-03T09:25:13;6.00;99.90
28171;DHT22;15458;53.346;-1.688;2023-04-03T09:27:39;6.20;99.90
28171;DHT22;15458;53.346;-1.688;2023-04-03T09:30:06;6.30;99.90
28171;DHT22;15458;53.346;-1.688;2023-04-03T09:32:35;6.50;99.90
28171;DHT22;15458;53.346;-1.688;2023-04-03T09:35:21;6.70;99.90
28171;DHT22;15458;53.346;-1.688;2023-04-03T09:37:50;7.00;99.90
28171;DHT22;15458;53.346;-1.688;2023-04-03T09:42:53;7.20;99.90
28171;DHT22;15458;53.346;-1.688;2023-04-03T09:45:30;7.50;99.90
28171;DHT22;15458;53.346;-1.688;2023-04-03T09:56:48;7.70;99.90
28171;DHT22;15458;53.346;-1.688;2023-04-03T09:59:03;7.80;99.90
28171;DHT22;15458;53.346;-1.688;2023-04-03T10:01:33;8.00;99.90
28171;DHT22;15458;53.346;-1.688;2023-04-03T10:04:18;8.30;99.90
28171;DHT22;15458;53.346;-1.688;2023-04-03T10:06:50;8.60;99.90
28171;DHT22;15458;53.346;-1.688;2023-04-03T10:12:08;8.90;99.90
28171;DHT22;15458;53.346;-1.688;2023-04-03T10:17:18;9.10;98.20
28171;DHT22;15458;53.346;-1.688;2023-04-03T10:23:21;9.10;97.60
28171;DHT22;15458;53.346;-1.688;2023-04-03T10:28:25;9.60;97.90
28171;DHT22;15458;53.346;-1.688;2023-04-03T10:31:18;9.80;96.60
28171;DHT22;15458;53.346;-1.688;2023-04-03T10:34:05;9.90;94.90
28171;DHT22;15458;53.346;-1.688;2023-04-03T10:39:46;10.10;94.10
28171;DHT22;15458;53.346;-1.688;2023-04-03T10:42:36;10.30;93.40
28171;DHT22;15458;53.346;-1.688;2023-04-03T10:48:06;10.80;91.40
28171;DHT22;15458;53.346;-1.688;2023-04-03T10:53:39;11.00;90.70
28171;DHT22;15458;53.346;-1.688;2023-04-03T11:01:41;11.30;87.10
28171;DHT22;15458;53.346;-1.688;2023-04-03T11:04:10;11.30;86.50
28171;DHT22;15458;53.346;-1.688;2023-04-03T11:07:02;11.40;85.80
28171;DHT22;15458;53.346;-1.688;2023-04-03T11:09:35;11.50;85.70
28171;DHT22;15458;53.346;-1.688;2023-04-03T11:12:21;11.70;85.80
28171;DHT22;15458;53.346;-1.688;2023-04-03T11:14:50;11.90;84.70
28171;DHT22;15458;53.346;-1.688;2023-04-03T11:27:51;12.40;79.80
28171;DHT22;15458;53.346;-1.688;2023-04-03T11:30:27;12.40;79.00
28171;DHT22;15458;53.346;-1.688;2023-04-03T11:32:57;12.50;78.90
28171;DHT22;15458;53.346;-1.688;2023-04-03T11:35:26;12.50;78.40
28171;DHT22;15458;53.346;-1.688;2023-04-03T11:37:53;12.70;78.40
28171;DHT22;15458;53.346;-1.688;2023-04-03T11:40:33;12.90;78.00
28171;DHT22;15458;53.346;-1.688;2023-04-03T11:46:03;13.30;76.10
28171;DHT22;15458;53.346;-1.688;2023-04-03T11:51:37;13.30;74.70
28171;DHT22;15458;53.346;-1.688;2023-04-03T11:53:48;13.40;75.10
28171;DHT22;15458;53.346;-1.688;2023-04-03T12:01:46;13.90;74.90
28171;DHT22;15458;53.346;-1.688;2023-04-03T12:04:13;14.00;73.40
28171;DHT22;15458;53.346;-1.688;2023-04-03T12:06:41;14.00;72.60
28171;DHT22;15458;53.346;-1.688;2023-04-03T12:09:25;13.90;71.10
28171;DHT22;15458;53.346;-1.688;2023-04-03T12:11:51;13.70;70.60
28171;DHT22;15458;53.346;-1.688;2023-04-03T12:14:17;13.60;70.90
28171;DHT22;15458;53.346;-1.688;2023-04-03T12:16:46;13.80;71.60
28171;DHT22;15458;53.346;-1.688;2023-04-03T12:24:31;14.50;71.50
28171;DHT22;15458;53.346;-1.688;2023-04-03T12:29:38;14.70;69.60
28171;DHT22;15458;53.346;-1.688;2023-04-03T12:32:44;14.80;69.40
28171;DHT22;15458;53.346;-1.688;2023-04-03T12:35:43;15.00;69.70
28171;DHT22;15458;53.346;-1.688;2023-04-03T12:47:28;15.20;67.20
28171;DHT22;15458;53.346;-1.688;2023-04-03T12:49:54;15.30;66.60
28171;DHT22;15458;53.346;-1.688;2023-04-03T12:52:32;15.50;66.00
28171;DHT22;15458;53.346;-1.688;2023-04-03T12:55:00;15.60;65.30
28171;DHT22;15458;53.346;-1.688;2023-04-03T12:57:29;15.50;64.90
28171;DHT22;15458;53.346;-1.688;2023-04-03T12:59:56;15.60;65.30
28171;DHT22;15458;53.346;-1.688;2023-04-03T13:02:30;15.60;65.00
28171;DHT22;15458;53.346;-1.688;2023-04-03T13:04:59;15.70;64.80
28171;DHT22;15458;53.346;-1.688;2023-04-03T13:07:35;15.50;64.00
28171;DHT22;15458;53.346;-1.688;2023-04-03T13:12:45;15.80;66.00
28171;DHT22;15458;53.346;-1.688;2023-04-03T13:17:49;16.10;64.30
28171;DHT22;15458;53.346;-1.688;2023-04-03T13:20:28;16.30;64.60
28171;DHT22;15458;53.346;-1.688;2023-04-03T13:25:21;16.50;63.30
28171;DHT22;15458;53.346;-1.688;2023-04-03T13:27:48;16.70;63.30
28171;DHT22;15458;53.346;-1.688;2023-04-03T13:30:35;16.70;62.20
28171;DHT22;15458;53.346;-1.688;2023-04-03T13:33:04;16.80;61.60
28171;DHT22;15458;53.346;-1.688;2023-04-03T13:35:32;16.60;61.60
28171;DHT22;15458;53.346;-1.688;2023-04-03T13:38:01;16.60;61.50
28171;DHT22;15458;53.346;-1.688;2023-04-03T13:40:27;16.60;61.20
28171;DHT22;15458;53.346;-1.688;2023-04-03T13:43:16;16.60;61.30
28171;DHT22;15458;53.346;-1.688;2023-04-03T13:46:38;16.60;61.20
28171;DHT22;15458;53.346;-1.688;2023-04-03T13:48:45;16.50;60.90
28171;DHT22;15458;53.346;-1.688;2023-04-03T13:56:29;17.00;60.80
28171;DHT22;15458;53.346;-1.688;2023-04-03T14:01:40;17.30;60.90
28171;DHT22;15458;53.346;-1.688;2023-04-03T14:04:15;17.60;60.70
28171;DHT22;15458;53.346;-1.688;2023-04-03T14:06:42;17.70;60.50
28171;DHT22;15458;53.346;-1.688;2023-04-03T14:09:08;17.60;58.90
28171;DHT22;15458;53.346;-1.688;2023-04-03T14:11:34;17.40;58.70
28171;DHT22;15458;53.346;-1.688;2023-04-03T14:14:03;17.30;59.10
28171;DHT22;15458;53.346;-1.688;2023-04-03T14:16:32;17.40;59.20
28171;DHT22;15458;53.346;-1.688;2023-04-03T14:19:02;17.40;59.10
28171;DHT22;15458;53.346;-1.688;2023-04-03T14:21:28;17.30;59.00
28171;DHT22;15458;53.346;-1.688;2023-04-03T14:23:54;17.20;59.00
28171;DHT22;15458;53.346;-1.688;2023-04-03T14:26:22;17.20;58.90
28171;DHT22;15458;53.346;-1.688;2023-04-03T14:28:51;17.30;59.00
28171;DHT22;15458;53.346;-1.688;2023-04-03T14:31:18;17.30;59.00
28171;DHT22;15458;53.346;-1.688;2023-04-03T14:33:44;17.30;58.80
28171;DHT22;15458;53.346;-1.688;2023-04-03T14:36:16;17.40;59.00
28171;DHT22;15458;53.346;-1.688;2023-04-03T14:38:43;17.80;59.30
28171;DHT22;15458;53.346;-1.688;2023-04-03T14:41:13;18.00;58.70
28171;DHT22;15458;53.346;-1.688;2023-04-03T14:43:39;17.90;58.40
28171;DHT22;15458;53.346;-1.688;2023-04-03T14:46:14;17.80;58.00
28171;DHT22;15458;53.346;-1.688;2023-04-03T14:48:40;17.80;57.90
28171;DHT22;15458;53.346;-1.688;2023-04-03T14:51:06;17.80;58.30
28171;DHT22;15458;53.346;-1.688;2023-04-03T14:53:32;17.80;58.50
28171;DHT22;15458;53.346;-1.688;2023-04-03T14:55:58;17.90;58.10
28171;DHT22;15458;53.346;-1.688;2023-04-03T14:58:24;17.90;57.80
28171;DHT22;15458;53.346;-1.688;2023-04-03T15:00:49;17.90;58.10
28171;DHT22;15458;53.346;-1.688;2023-04-03T15:03:17;18.10;58.20
28171;DHT22;15458;53.346;-1.688;2023-04-03T15:05:44;18.10;57.40
28171;DHT22;15458;53.346;-1.688;2023-04-03T15:08:19;18.10;57.70
28171;DHT22;15458;53.346;-1.688;2023-04-03T15:10:46;17.90;57.10
28171;DHT22;15458;53.346;-1.688;2023-04-03T15:13:12;17.70;56.70
28171;DHT22;15458;53.346;-1.688;2023-04-03T15:15:39;17.50;57.10
28171;DHT22;15458;53.346;-1.688;2023-04-03T15:18:05;17.50;57.70
28171;DHT22;15458;53.346;-1.688;2023-04-03T15:20:31;17.60;57.80
28171;DHT22;15458;53.346;-1.688;2023-04-03T15:22:59;17.50;57.70
28171;DHT22;15458;53.346;-1.688;2023-04-03T15:25:28;17.70;58.10
28171;DHT22;15458;53.346;-1.688;2023-04-03T15:27:55;18.00;58.40
28171;DHT22;15458;53.346;-1.688;2023-04-03T15:30:21;18.30;57.60
28171;DHT22;15458;53.346;-1.688;2023-04-03T15:32:47;18.30;56.60
28171;DHT22;15458;53.346;-1.688;2023-04-03T15:35:14;18.40;56.30
28171;DHT22;15458;53.346;-1.688;2023-04-03T15:37:39;18.20;55.80
28171;DHT22;15458;53.346;-1.688;2023-04-03T15:40:06;18.10;55.90
28171;DHT22;15458;53.346;-1.688;2023-04-03T15:42:32;18.20;56.20
28171;DHT22;15458;53.346;-1.688;2023-04-03T15:44:58;18.10;56.80
28171;DHT22;15458;53.346;-1.688;2023-04-03T15:47:25;18.10;56.10
28171;DHT22;15458;53.346;-1.688;2023-04-03T15:49:51;18.10;56.30
28171;DHT22;15458;53.346;-1.688;2023-04-03T15:52:17;18.00;56.80
28171;DHT22;15458;53.346;-1.688;2023-04-03T15:54:42;18.10;57.20
28171;DHT22;15458;53.346;-1.688;2023-04-03T15:57:08;18.30;57.30
28171;DHT22;15458;53.346;-1.688;2023-04-03T15:59:33;18.30;57.10
28171;DHT22;15458;53.346;-1.688;2023-04-03T16:02:00;18.10;56.70
28171;DHT22;15458;53.346;-1.688;2023-04-03T16:04:27;18.00;56.90
28171;DHT22;15458;53.346;-1.688;2023-04-03T16:06:52;17.80;57.10
28171;DHT22;15458;53.346;-1.688;2023-04-03T16:09:18;17.60;57.00
28171;DHT22;15458;53.346;-1.688;2023-04-03T16:11:44;17.50;57.40
28171;DHT22;15458;53.346;-1.688;2023-04-03T16:14:10;17.50;57.60
28171;DHT22;15458;53.346;-1.688;2023-04-03T16:16:36;17.50;57.60
28171;DHT22;15458;53.346;-1.688;2023-04-03T16:19:03;17.50;57.40
28171;DHT22;15458;53.346;-1.688;2023-04-03T16:21:29;17.40;57.20
28171;DHT22;15458;53.346;-1.688;2023-04-03T16:23:59;17.30;57.30
28171;DHT22;15458;53.346;-1.688;2023-04-03T16:26:25;17.10;57.30
28171;DHT22;15458;53.346;-1.688;2023-04-03T16:28:52;17.10;57.50
28171;DHT22;15458;53.346;-1.688;2023-04-03T16:31:18;17.00;57.40
28171;DHT22;15458;53.346;-1.688;2023-04-03T16:33:43;17.00;57.50
28171;DHT22;15458;53.346;-1.688;2023-04-03T16:36:09;17.00;57.70
28171;DHT22;15458;53.346;-1.688;2023-04-03T16:38:35;16.90;57.70
28171;DHT22;15458;53.346;-1.688;2023-04-03T16:41:01;16.90;58.30
28171;DHT22;15458;53.346;-1.688;2023-04-03T16:43:30;16.60;57.70
28171;DHT22;15458;53.346;-1.688;2023-04-03T16:45:56;16.50;58.20
28171;DHT22;15458;53.346;-1.688;2023-04-03T16:48:22;16.50;58.30
28171;DHT22;15458;53.346;-1.688;2023-04-03T16:50:49;16.40;58.30
28171;DHT22;15458;53.346;-1.688;2023-04-03T16:53:17;16.40;58.70
28171;DHT22;15458;53.346;-1.688;2023-04-03T16:55:43;16.40;59.00
28171;DHT22;15458;53.346;-1.688;2023-04-03T16:58:10;16.40;58.90
28171;DHT22;15458;53.346;-1.688;2023-04-03T17:00:36;16.30;58.90
28171;DHT22;15458;53.346;-1.688;2023-04-03T17:03:02;16.20;58.90
28171;DHT22;15458;53.346;-1.688;2023-04-03T17:05:27;16.00;59.20
28171;DHT22;15458;53.346;-1.688;2023-04-03T17:07:53;15.90;59.50
28171;DHT22;15458;53.346;-1.688;2023-04-03T17:10:19;15.70;59.90
28171;DHT22;15458;53.346;-1.688;2023-04-03T17:12:44;15.60;60.60
28171;DHT22;15458;53.346;-1.688;2023-04-03T17:15:11;15.50;60.50
28171;DHT22;15458;53.346;-1.688;2023-04-03T17:17:36;15.20;60.80
28171;DHT22;15458;53.346;-1.688;2023-04-03T17:20:03;15.00;61.50